West Greene, AL

5:32 PM CDT on July 30, 2014 (GMT -0500)
Demopolis Municipal Airport (KDYA) Elev 112 ft | 32.46 °N, 87.95 °W | Change Station

Current weather conditions updated 17 minutes ago

Clear
Clear
85 °F
Feels Like 85 °F
N
6
Wind Variable Wind from North

Tomorrow is forecast to be nearly the same temperature as today.

Today
High -- | Low -- °F
--% Chance of Precip.
Yesterday
High -- | Low -- °F
Precip. -- in
6:04 AM 7:52 PM
Waxing Crescent, 14% visible
Pressure 30.02 in
Visibility 10.0 miles
Clouds Clear
Dew Point 50 °F
Humidity 29%
Rainfall 0.00 in
Snow Depth Not available.
UV 3 out of 12
Pollen 4.20 out of 12
Ozone Good
PM2.5 Moderate
Flu Activity Not available.
METAR KDYA 302215Z AUTO 36005KT 10SM CLR 30/10 A3002 RMK AO2 T02960098

More Conditions Fewer Conditions

Pressure 30.02 in
Visibility 10.0 miles
Clouds Clear
Dew Point 50 °F
Humidity 29%
Rainfall 0.00 in
Snow Depth Not available.
UV 3 out of 12
Pollen 4.20 out of 12
Ozone Good
PM2.5 Moderate
Flu Activity Not available.
METAR KDYA 302215Z AUTO 36005KT 10SM CLR 30/10 A3002 RMK AO2 T02960098

More Conditions Fewer Conditions

10-Day Weather Forecast

Almanac

Astronomy

Jul. 30, 2014 Rise Set
Actual Time 6:04 AM CDT 7:52 PM CDT
Civil Twilight 5:37 AM CDT 8:19 PM CDT
Nautical Twilight 5:04 AM CDT 8:52 PM CDT
Astronomical Twilight 4:30 AM CDT 9:26 PM CDT
Moon 9:22 AM CDT 9:50 PM CDT
Length of Visible Light 14h 42m
Length of Day
13h 48m
Tomorrow will be 1m 28s shorter.
Waxing Crescent, 14% of the Moon is Illuminated
Today
Waxing Crescent
Aug 3
First Quarter
Aug 10
Full
Aug 17
Last Quarter
Aug 25
New

Today's Extremes

State Highs State Lows

Community

WunderPhotos

Upload Photos

1,739,229 photos uploaded!

Nearby

Air Quality

  Air Quality AQ Index Pollutant
Yesterday Good
PM10
Yesterday Good
OZONE
Current Moderate
PM2.5
Current Good
OZONE
Wednesday Good
PM2.5
Wednesday Good
OZONE
Thursday Moderate
PM2.5
Thursday Good
OZONE

Snow Depth

Station Depth Elevation
No new snow has been reported.

Earthquake Activity

City Distance Mag. Time & Date
No recent earthquake activity has been reported nearby.
Minimum magnitude displayed is 2.5.

Coastal Water Temperatures

Place Temperature
No Stations Reporting

Nearby Weather Stations

Station Location Temp. Heat Index Dew Point Humidity Wind Precip. Elev Updated Type
HCN HEFLIN LOCK GAINESVILLE 2 NE AL , Gainesville, AL 83 °F 81 °F - - North  at  - 0.00 in / hr 107 ft 4:40 PM CDT MADIS
MesoWest DEE RIVER RANCH , Aliceville, AL 82 °F 82 °F 57 °F 43% North  at  5 mph 0.00 in / hr 160 ft 4:00 PM CDT MADIS
MesoWest LIVINGSTON-UWA , Livingston, AL 84 °F 83 °F 55 °F 37% WNW  at  3 mph 0.00 in / hr 144 ft 4:00 PM CDT MADIS

Show More Stations Show Fewer Stations